Time;durP1;ratioP1;P1;durP2;ratioP2;P2;SDS_P1;SDS_P2;PMS_P1;PMS_P2;Temp;Humidity;BMP_temperature;BMP_pressure;BME280_temperature;BME280_humidity;BME280_pressure;Samples;Min_cycle;Max_cycle;Signal;HPM_P1;HPM_P2
2023/03/02 00:00:58;;;;;;;4.07;2.90;;;19.20;28.50;;;;;;5038812;28;20063;-50
2023/03/02 00:03:25;;;;;;;4.00;2.97;;;19.20;28.50;;;;;;5041024;28;20025;-50
2023/03/02 00:05:54;;;;;;;3.63;2.63;;;19.20;28.60;;;;;;5038350;28;20067;-52
2023/03/02 00:08:20;;;;;;;3.05;2.75;;;19.20;28.60;;;;;;5044789;28;20518;-51
2023/03/02 00:10:46;;;;;;;4.07;2.60;;;19.20;28.60;;;;;;5037629;28;20022;-48
2023/03/02 00:13:13;;;;;;;3.35;2.88;;;19.20;28.70;;;;;;5039730;28;20572;-48
2023/03/02 00:15:38;;;;;;;4.25;3.30;;;19.10;29.20;;;;;;5040924;28;20026;-53
2023/03/02 00:18:04;;;;;;;3.58;2.60;;;19.20;28.80;;;;;;5038531;28;20444;-49
2023/03/02 00:20:31;;;;;;;4.18;2.95;;;19.20;28.80;;;;;;5039564;28;20025;-50
2023/03/02 00:22:56;;;;;;;3.78;3.08;;;19.20;28.80;;;;;;5037237;28;20025;-53
2023/03/02 00:25:22;;;;;;;6.40;3.53;;;19.10;28.90;;;;;;5038839;28;20034;-53
2023/03/02 00:27:48;;;;;;;4.15;3.25;;;19.10;28.90;;;;;;5042118;28;20063;-48
2023/03/02 00:30:15;;;;;;;4.35;3.30;;;19.10;28.90;;;;;;5045555;28;20417;-49
2023/03/02 00:32:41;;;;;;;4.10;3.40;;;19.10;29.00;;;;;;5043642;28;20738;-53
2023/03/02 00:35:07;;;;;;;4.78;3.53;;;19.10;29.00;;;;;;5042665;28;20051;-51
2023/03/02 00:37:37;;;;;;;4.22;3.53;;;19.20;29.00;;;;;;5042205;28;20095;-50
2023/03/02 00:40:05;;;;;;;4.55;4.00;;;19.10;29.00;;;;;;5041862;28;20025;-51
2023/03/02 00:42:32;;;;;;;4.65;3.60;;;19.10;29.10;;;;;;5044055;28;20337;-52
2023/03/02 00:45:00;;;;;;;4.90;3.58;;;19.10;29.10;;;;;;5043665;28;20107;-52
2023/03/02 00:47:28;;;;;;;4.00;3.53;;;19.10;29.10;;;;;;5042264;28;20040;-52
2023/03/02 00:49:54;;;;;;;6.57;4.10;;;19.10;29.20;;;;;;5041108;28;20029;-50
2023/03/02 00:52:20;;;;;;;5.78;4.18;;;19.10;29.20;;;;;;5040483;28;20110;-55
2023/03/02 00:54:46;;;;;;;6.18;4.20;;;19.10;29.20;;;;;;5039604;28;20448;-50
2023/03/02 00:57:12;;;;;;;5.53;4.38;;;19.10;29.20;;;;;;5043620;28;20063;-53
2023/03/02 00:59:39;;;;;;;5.05;4.25;;;19.10;29.30;;;;;;5040205;28;20034;-51
2023/03/02 01:02:17;;;;;;;5.82;4.28;;;19.10;29.30;;;;;;5041121;28;20033;-53
2023/03/02 01:04:43;;;;;;;4.80;4.30;;;19.10;29.40;;;;;;5042325;28;20269;-48
2023/03/02 01:07:12;;;;;;;5.28;4.25;;;19.10;29.40;;;;;;5045270;28;20063;-50
2023/03/02 01:09:40;;;;;;;4.57;3.85;;;19.10;29.40;;;;;;5048829;28;20108;-50
2023/03/02 01:12:09;;;;;;;6.03;4.47;;;19.10;29.40;;;;;;5059996;28;20054;-49
2023/03/02 01:14:40;;;;;;;5.35;4.57;;;19.10;29.50;;;;;;5028309;28;20121;-46
2023/03/02 01:17:08;;;;;;;5.03;4.43;;;19.10;29.50;;;;;;5041362;28;20360;-49
2023/03/02 01:19:34;;;;;;;5.57;4.65;;;19.10;29.50;;;;;;5045596;28;20116;-51
2023/03/02 01:21:59;;;;;;;5.68;4.28;;;19.00;29.40;;;;;;5040990;28;20112;-47
2023/03/02 01:24:26;;;;;;;4.90;4.10;;;19.00;29.40;;;;;;5040647;28;20033;-51
2023/03/02 01:26:52;;;;;;;5.43;4.55;;;19.00;29.50;;;;;;5040693;28;20030;-48
2023/03/02 01:29:18;;;;;;;5.43;4.38;;;19.00;29.50;;;;;;5040230;28;20039;-52
2023/03/02 01:31:43;;;;;;;5.43;4.43;;;19.00;29.50;;;;;;5040970;28;20106;-49
2023/03/02 01:34:09;;;;;;;5.72;4.45;;;19.00;29.50;;;;;;5041936;28;20021;-49
2023/03/02 01:36:35;;;;;;;5.82;5.00;;;19.00;29.50;;;;;;5032283;28;20029;-51
2023/03/02 01:39:03;;;;;;;4.75;4.05;;;19.00;29.50;;;;;;5043804;28;20040;-51
2023/03/02 01:41:28;;;;;;;5.55;4.15;;;19.00;29.50;;;;;;5039745;28;20082;-51
2023/03/02 01:43:54;;;;;;;5.55;4.90;;;19.00;29.50;;;;;;5056444;28;20021;-54
2023/03/02 01:46:22;;;;;;;5.85;4.47;;;19.00;29.50;;;;;;5037276;28;20025;-48
2023/03/02 01:49:05;;;;;;;4.97;4.28;;;19.00;29.50;;;;;;5039837;28;20056;-52
2023/03/02 01:51:59;;;;;;;4.82;4.13;;;19.00;29.50;;;;;;5040013;28;20071;-52
2023/03/02 01:54:25;;;;;;;6.25;4.80;;;19.00;29.60;;;;;;5042481;28;20036;-53
2023/03/02 01:56:59;;;;;;;6.35;4.85;;;19.00;29.60;;;;;;5036841;28;20025;-48
2023/03/02 01:59:28;;;;;;;6.22;4.95;;;19.00;29.60;;;;;;5040143;28;20040;-47
2023/03/02 02:01:57;;;;;;;5.57;4.90;;;19.00;29.60;;;;;;5043110;28;20057;-48
2023/03/02 02:04:25;;;;;;;5.75;4.90;;;19.00;29.60;;;;;;5043619;28;20029;-50
2023/03/02 02:07:05;;;;;;;5.40;4.70;;;19.00;29.60;;;;;;5056335;28;20030;-51
2023/03/02 02:09:42;;;;;;;5.63;4.80;;;19.00;29.60;;;;;;5040258;28;20457;-47
2023/03/02 02:12:14;;;;;;;4.85;4.15;;;19.00;29.60;;;;;;5048946;28;20048;-49
2023/03/02 02:14:41;;;;;;;6.13;4.70;;;18.90;29.60;;;;;;5044219;28;20033;-54
2023/03/02 02:17:09;;;;;;;6.50;4.75;;;18.90;29.60;;;;;;5043871;28;20098;-53
2023/03/02 02:20:15;;;;;;;5.32;4.40;;;18.90;29.60;;;;;;5043953;28;20453;-51
2023/03/02 02:23:00;;;;;;;5.63;4.43;;;18.90;29.60;;;;;;5038850;28;20037;-52
2023/03/02 02:25:43;;;;;;;6.63;4.55;;;18.90;29.60;;;;;;5039546;28;20064;-52
2023/03/02 02:28:26;;;;;;;5.53;4.47;;;18.90;29.60;;;;;;5039146;28;20047;-52
2023/03/02 02:31:05;;;;;;;5.43;4.38;;;18.90;29.60;;;;;;5035577;28;20394;-51
2023/03/02 02:33:32;;;;;;;4.90;4.28;;;18.90;29.60;;;;;;5042790;28;20018;-48
2023/03/02 02:36:07;;;;;;;5.45;4.60;;;18.90;29.60;;;;;;5044234;28;20032;-52
2023/03/02 02:38:36;;;;;;;6.43;4.82;;;18.90;29.60;;;;;;5040126;28;20378;-52
2023/03/02 02:41:05;;;;;;;5.75;4.68;;;18.90;29.60;;;;;;5044722;28;20356;-51
2023/03/02 02:43:33;;;;;;;5.05;4.40;;;18.90;29.60;;;;;;5040562;28;20029;-49
2023/03/02 02:46:01;;;;;;;5.93;5.00;;;18.90;29.60;;;;;;5037848;28;20045;-52
2023/03/02 02:48:29;;;;;;;6.05;4.28;;;18.90;29.70;;;;;;5038447;28;20076;-53
2023/03/02 02:51:02;;;;;;;6.65;4.93;;;18.90;29.60;;;;;;5053398;28;20025;-52
2023/03/02 02:54:00;;;;;;;5.80;4.97;;;18.90;29.60;;;;;;5041191;28;20063;-52
2023/03/02 02:56:35;;;;;;;5.90;4.85;;;18.90;29.60;;;;;;5039160;28;20778;-50
2023/03/02 02:59:16;;;;;;;5.57;4.80;;;18.90;29.60;;;;;;5041761;28;20127;-54
2023/03/02 03:01:43;;;;;;;5.82;5.00;;;18.90;29.60;;;;;;5019774;28;20434;-50
2023/03/02 03:04:13;;;;;;;6.50;5.15;;;18.80;29.60;;;;;;5045045;28;20039;-53
2023/03/02 03:07:06;;;;;;;5.88;4.95;;;18.90;29.60;;;;;;5037397;28;20064;-50
2023/03/02 03:09:32;;;;;;;6.05;4.70;;;18.90;29.60;;;;;;5038924;28;20017;-53
2023/03/02 03:12:16;;;;;;;6.68;5.00;;;18.80;29.60;;;;;;5038312;28;20444;-52
2023/03/02 03:14:43;;;;;;;6.30;5.03;;;18.90;29.60;;;;;;5044420;28;20037;-52
2023/03/02 03:17:13;;;;;;;8.05;5.43;;;18.90;29.60;;;;;;5026983;28;20056;-53
2023/03/02 03:19:46;;;;;;;6.20;5.25;;;18.80;29.60;;;;;;5043770;28;20056;-51
2023/03/02 03:22:15;;;;;;;5.70;4.95;;;18.80;29.60;;;;;;5037223;28;20116;-49
2023/03/02 03:24:44;;;;;;;6.90;5.43;;;18.80;29.60;;;;;;5052740;28;20037;-52
2023/03/02 03:27:13;;;;;;;7.18;5.82;;;18.80;29.60;;;;;;5044528;28;20028;-49
2023/03/02 03:29:42;;;;;;;6.40;5.32;;;18.80;29.60;;;;;;5037194;28;20049;-47
2023/03/02 03:32:09;;;;;;;6.43;5.50;;;18.80;29.60;;;;;;5051754;28;20425;-51
2023/03/02 03:34:39;;;;;;;5.60;5.00;;;18.80;29.60;;;;;;5051734;28;20022;-51
2023/03/02 03:37:13;;;;;;;6.03;5.40;;;18.80;29.60;;;;;;5035321;28;20035;-51
2023/03/02 03:39:39;;;;;;;5.97;4.72;;;18.80;29.60;;;;;;5040661;28;20032;-52
2023/03/02 03:42:05;;;;;;;6.57;5.30;;;18.80;29.70;;;;;;5044301;28;20108;-50
2023/03/02 03:44:32;;;;;;;6.95;5.13;;;18.80;29.60;;;;;;5052933;28;20029;-52
2023/03/02 03:46:58;;;;;;;6.38;5.20;;;18.80;29.60;;;;;;5059168;28;20064;-49
2023/03/02 03:49:24;;;;;;;6.43;5.35;;;18.70;29.60;;;;;;5037354;28;20468;-48
2023/03/02 03:51:50;;;;;;;6.18;5.13;;;18.80;29.70;;;;;;5053643;28;20048;-53
2023/03/02 03:54:17;;;;;;;6.10;5.13;;;18.80;29.70;;;;;;5038277;28;20030;-53
2023/03/02 03:56:46;;;;;;;6.30;5.47;;;18.70;29.60;;;;;;5041082;28;20029;-52
2023/03/02 03:59:16;;;;;;;6.22;5.30;;;18.70;29.60;;;;;;5038829;28;20068;-49
2023/03/02 04:01:57;;;;;;;6.40;5.20;;;18.70;29.70;;;;;;5045080;28;20119;-51
2023/03/02 04:04:29;;;;;;;6.93;5.43;;;18.70;29.60;;;;;;5036469;28;20021;-50
2023/03/02 04:06:55;;;;;;;6.30;5.18;;;18.70;29.60;;;;;;5032311;28;20112;-49
2023/03/02 04:09:22;;;;;;;6.32;5.28;;;18.70;29.60;;;;;;5058628;28;20037;-52
2023/03/02 04:11:51;;;;;;;6.10;5.20;;;18.80;29.70;;;;;;5041253;28;20107;-51
2023/03/02 04:14:19;;;;;;;7.20;5.50;;;18.70;29.60;;;;;;5056897;28;20030;-51
2023/03/02 04:16:45;;;;;;;7.10;5.47;;;18.70;29.60;;;;;;5038370;28;20135;-47
2023/03/02 04:19:13;;;;;;;6.72;5.57;;;18.70;29.60;;;;;;5038443;28;20045;-49
2023/03/02 04:21:45;;;;;;;6.38;5.28;;;18.70;29.60;;;;;;5036183;28;20025;-49
2023/03/02 04:24:13;;;;;;;7.15;5.47;;;18.70;29.60;;;;;;5033272;28;20046;-52
2023/03/02 04:26:40;;;;;;;6.90;5.38;;;18.70;29.60;;;;;;5039871;28;20350;-50
2023/03/02 04:29:08;;;;;;;7.70;5.80;;;18.70;29.60;;;;;;5053558;28;20025;-50
2023/03/02 04:31:36;;;;;;;7.18;5.38;;;18.70;29.60;;;;;;5037620;28;20034;-51
2023/03/02 04:34:03;;;;;;;7.30;5.35;;;18.70;29.60;;;;;;5037232;28;20391;-52
2023/03/02 04:36:31;;;;;;;6.63;5.43;;;18.70;29.60;;;;;;5039923;28;20463;-49
2023/03/02 04:38:57;;;;;;;7.30;5.30;;;18.70;29.60;;;;;;5041945;28;20064;-49
2023/03/02 04:41:22;;;;;;;7.22;5.95;;;18.70;29.60;;;;;;5038441;28;20845;-49
2023/03/02 04:43:48;;;;;;;6.82;5.35;;;18.70;29.60;;;;;;5033060;28;20116;-50
2023/03/02 04:46:25;;;;;;;6.70;5.20;;;18.70;29.60;;;;;;5037024;28;20057;-49
2023/03/02 04:48:52;;;;;;;7.68;5.70;;;18.70;29.60;;;;;;5036739;28;20448;-52
2023/03/02 04:51:28;;;;;;;5.70;5.10;;;18.70;29.70;;;;;;5035101;28;20029;-47
2023/03/02 04:53:58;;;;;;;7.03;5.82;;;18.60;29.60;;;;;;5039424;28;20021;-48
2023/03/02 04:56:24;;;;;;;6.40;5.55;;;18.60;29.60;;;;;;5035827;28;20025;-47
2023/03/02 04:58:50;;;;;;;6.53;5.53;;;18.60;29.60;;;;;;5050923;28;20196;-51
2023/03/02 05:01:18;;;;;;;6.45;5.43;;;18.60;29.60;;;;;;5040369;28;20030;-50
2023/03/02 05:03:43;;;;;;;6.78;5.55;;;18.60;29.60;;;;;;5041208;28;20029;-50
2023/03/02 05:06:11;;;;;;;6.20;5.07;;;18.60;29.60;;;;;;5042250;28;20112;-51
2023/03/02 05:08:37;;;;;;;6.65;5.45;;;18.60;29.60;;;;;;5041421;28;20021;-52
2023/03/02 05:11:05;;;;;;;6.50;5.18;;;18.60;29.60;;;;;;5044629;28;20044;-52
2023/03/02 05:13:31;;;;;;;5.80;5.00;;;18.60;29.60;;;;;;5037590;28;20046;-47
2023/03/02 05:15:57;;;;;;;6.82;5.07;;;18.60;29.50;;;;;;5041431;28;20036;-50
2023/03/02 05:18:24;;;;;;;6.28;4.80;;;18.60;29.50;;;;;;5044014;28;20508;-49
2023/03/02 05:20:51;;;;;;;6.28;4.97;;;18.60;29.50;;;;;;5045300;28;20171;-50
2023/03/02 05:23:22;;;;;;;6.10;4.82;;;18.60;29.50;;;;;;5040144;28;20037;-51
2023/03/02 05:25:52;;;;;;;5.82;4.95;;;18.60;29.50;;;;;;5041386;28;20476;-49
2023/03/02 05:28:20;;;;;;;6.05;4.85;;;18.60;29.50;;;;;;5038419;28;20448;-50
2023/03/02 05:30:47;;;;;;;6.43;5.13;;;18.60;29.40;;;;;;5044406;28;20352;-47
2023/03/02 05:33:13;;;;;;;6.45;5.13;;;18.60;29.40;;;;;;5042989;28;20029;-51
2023/03/02 05:35:40;;;;;;;6.97;5.32;;;18.50;29.40;;;;;;5044330;28;20026;-54
2023/03/02 05:38:06;;;;;;;7.22;5.75;;;18.60;29.40;;;;;;5042450;28;20088;-53
2023/03/02 05:40:32;;;;;;;7.20;5.72;;;18.50;29.40;;;;;;5040339;28;20044;-50
2023/03/02 05:42:58;;;;;;;7.35;5.55;;;18.50;29.40;;;;;;5039381;28;20425;-54
2023/03/02 05:45:27;;;;;;;8.02;5.80;;;18.60;29.40;;;;;;5042525;28;20052;-52
2023/03/02 05:47:53;;;;;;;7.50;5.78;;;18.60;29.40;;;;;;5038906;28;20033;-51
2023/03/02 05:50:20;;;;;;;7.82;6.03;;;18.60;29.40;;;;;;5040107;28;20448;-50
2023/03/02 05:52:46;;;;;;;7.03;5.18;;;18.50;29.40;;;;;;5039699;28;20025;-52
2023/03/02 05:55:14;;;;;;;6.25;5.32;;;18.50;29.40;;;;;;5042524;28;20029;-51
2023/03/02 05:57:40;;;;;;;6.70;5.50;;;18.50;29.50;;;;;;5072848;28;20465;-53
2023/03/02 06:00:09;;;;;;;7.15;5.57;;;18.50;29.50;;;;;;5043757;28;20079;-52
2023/03/02 06:02:38;;;;;;;7.43;5.63;;;18.50;29.50;;;;;;5046747;28;20512;-53
2023/03/02 06:05:09;;;;;;;7.68;5.85;;;18.50;29.50;;;;;;5039178;28;20033;-50
2023/03/02 06:07:35;;;;;;;7.25;5.40;;;18.50;29.50;;;;;;5043687;28;20025;-51
2023/03/02 06:10:02;;;;;;;6.97;5.60;;;18.50;30.00;;;;;;5042925;28;20025;-53
2023/03/02 06:12:29;;;;;;;6.97;5.10;;;18.50;29.50;;;;;;5039939;28;20452;-53
2023/03/02 06:14:54;;;;;;;8.30;6.03;;;18.50;29.50;;;;;;5046003;28;20029;-52
2023/03/02 06:17:20;;;;;;;7.07;5.43;;;18.50;29.50;;;;;;5038671;28;20052;-48
2023/03/02 06:19:46;;;;;;;7.85;5.45;;;18.50;29.50;;;;;;5041882;28;20033;-52
2023/03/02 06:22:12;;;;;;;8.23;5.60;;;18.50;29.50;;;;;;5043661;28;20041;-54
2023/03/02 06:24:38;;;;;;;6.95;5.60;;;18.50;29.50;;;;;;5040931;28;20037;-51
2023/03/02 06:27:03;;;;;;;8.13;6.32;;;18.50;29.50;;;;;;5043820;28;20040;-49
2023/03/02 06:29:29;;;;;;;8.77;6.25;;;18.50;29.50;;;;;;5042174;28;20037;-52
2023/03/02 06:31:55;;;;;;;8.68;6.45;;;18.50;29.40;;;;;;5044920;28;20033;-53
2023/03/02 06:34:21;;;;;;;9.07;6.75;;;18.50;29.40;;;;;;5044422;28;20171;-49
2023/03/02 06:36:47;;;;;;;9.23;6.53;;;18.50;29.30;;;;;;5044510;28;20367;-49
2023/03/02 06:39:15;;;;;;;9.82;7.15;;;18.50;29.30;;;;;;5044356;28;20121;-51
2023/03/02 06:41:42;;;;;;;10.30;6.95;;;18.40;29.70;;;;;;5045083;28;20024;-50
2023/03/02 06:44:09;;;;;;;9.25;7.15;;;18.50;29.20;;;;;;5038571;28;21432;-49
2023/03/02 06:46:35;;;;;;;9.40;6.95;;;18.50;29.20;;;;;;5045618;28;20111;-47
2023/03/02 06:49:01;;;;;;;9.73;7.65;;;18.40;29.20;;;;;;5042474;28;20044;-52
2023/03/02 06:51:27;;;;;;;9.95;7.22;;;18.40;29.20;;;;;;5047610;28;20025;-51
2023/03/02 06:53:52;;;;;;;12.90;8.63;;;18.40;29.20;;;;;;5039947;28;20025;-51
2023/03/02 06:56:18;;;;;;;10.70;8.05;;;18.40;29.20;;;;;;5044489;28;20095;-52
2023/03/02 06:58:44;;;;;;;10.65;8.05;;;18.40;29.20;;;;;;5042071;28;20077;-51
2023/03/02 07:01:10;;;;;;;11.75;8.40;;;18.40;29.20;;;;;;5043092;28;20052;-49
2023/03/02 07:03:36;;;;;;;12.38;8.55;;;18.40;29.20;;;;;;5045268;28;20387;-51
2023/03/02 07:06:02;;;;;;;12.90;9.77;;;18.40;29.20;;;;;;5044443;28;20029;-50
2023/03/02 07:08:28;;;;;;;14.07;9.90;;;18.40;29.20;;;;;;5071559;28;20047;-50
2023/03/02 07:10:54;;;;;;;12.40;9.63;;;18.40;29.20;;;;;;5045611;28;20033;-50
2023/03/02 07:13:20;;;;;;;13.13;10.18;;;18.40;29.20;;;;;;5043902;28;20072;-51
2023/03/02 07:15:46;;;;;;;13.18;10.02;;;18.40;29.30;;;;;;5042445;28;20467;-51
2023/03/02 07:18:12;;;;;;;14.23;10.23;;;18.40;29.30;;;;;;5036381;28;20041;-49
2023/03/02 07:20:38;;;;;;;14.68;10.65;;;18.40;29.30;;;;;;5042408;28;20441;-48
2023/03/02 07:23:05;;;;;;;13.55;10.70;;;18.40;29.30;;;;;;5055685;28;20048;-49
2023/03/02 07:25:31;;;;;;;13.93;10.45;;;18.40;29.30;;;;;;5053936;28;20437;-51
2023/03/02 07:27:57;;;;;;;14.15;10.02;;;18.40;29.20;;;;;;5050875;28;20044;-50
2023/03/02 07:30:24;;;;;;;13.25;9.40;;;18.40;29.10;;;;;;5043680;28;20084;-49
2023/03/02 07:32:50;;;;;;;13.52;10.18;;;18.40;29.00;;;;;;5042647;28;20036;-52
2023/03/02 07:35:16;;;;;;;13.40;9.80;;;18.40;29.00;;;;;;5044005;28;20047;-50
2023/03/02 07:37:42;;;;;;;12.57;9.15;;;18.40;29.00;;;;;;5043631;28;20056;-49
2023/03/02 07:40:11;;;;;;;13.30;9.23;;;18.40;29.00;;;;;;5042712;28;20032;-53
2023/03/02 07:42:37;;;;;;;13.43;9.15;;;18.50;29.00;;;;;;5042797;28;20029;-50
2023/03/02 07:45:04;;;;;;;10.57;7.97;;;18.50;29.00;;;;;;5046540;28;20440;-48
2023/03/02 07:47:31;;;;;;;13.30;8.52;;;18.50;29.00;;;;;;5041498;28;20029;-49
2023/03/02 07:49:57;;;;;;;12.45;8.55;;;18.60;28.90;;;;;;5041694;28;20349;-48
2023/03/02 07:52:23;;;;;;;11.07;8.50;;;18.60;28.90;;;;;;5041576;28;20026;-49
2023/03/02 07:54:49;;;;;;;11.18;8.13;;;18.70;28.80;;;;;;5043264;28;20428;-51
2023/03/02 07:57:16;;;;;;;10.43;7.78;;;18.80;29.20;;;;;;5042353;28;20037;-48
2023/03/02 07:59:43;;;;;;;11.93;8.02;;;18.80;28.80;;;;;;5046197;28;20049;-53
2023/03/02 08:02:15;;;;;;;10.50;7.95;;;18.90;28.80;;;;;;5040454;28;20108;-52
2023/03/02 08:04:42;;;;;;;10.30;7.40;;;18.90;28.80;;;;;;5046315;28;20039;-51
2023/03/02 08:07:08;;;;;;;10.35;7.82;;;19.00;28.80;;;;;;5041842;28;20059;-52
2023/03/02 08:09:34;;;;;;;10.80;7.60;;;19.10;28.70;;;;;;5044959;28;20029;-49
2023/03/02 08:11:59;;;;;;;9.82;7.45;;;19.10;28.70;;;;;;5046180;28;20041;-47
2023/03/02 08:14:26;;;;;;;10.25;7.40;;;19.20;28.70;;;;;;5046768;28;20029;-52
2023/03/02 08:16:51;;;;;;;10.60;7.65;;;19.20;28.60;;;;;;5045938;28;20017;-53
2023/03/02 08:19:20;;;;;;;10.32;7.75;;;19.30;28.60;;;;;;5047232;28;20052;-52
2023/03/02 08:21:46;;;;;;;9.15;6.95;;;19.30;28.50;;;;;;5046462;28;20081;-53
2023/03/02 08:24:12;;;;;;;8.80;6.25;;;19.40;28.50;;;;;;5045959;28;20112;-52
2023/03/02 08:26:39;;;;;;;10.27;7.07;;;19.50;28.50;;;;;;5036571;28;20033;-53
2023/03/02 08:29:05;;;;;;;8.65;6.38;;;19.50;28.90;;;;;;5040101;28;20033;-53
2023/03/02 08:31:32;;;;;;;10.70;6.90;;;19.60;28.40;;;;;;5038407;28;20026;-51
2023/03/02 08:34:00;;;;;;;9.23;6.97;;;19.70;28.40;;;;;;5035841;28;20091;-49
2023/03/02 08:36:26;;;;;;;8.50;6.03;;;19.70;28.30;;;;;;5047200;28;20134;-54
2023/03/02 08:38:53;;;;;;;9.20;6.32;;;19.80;28.30;;;;;;5058023;28;20452;-55
2023/03/02 08:41:21;;;;;;;8.95;6.88;;;19.80;28.40;;;;;;5053468;28;20037;-53
2023/03/02 08:43:48;;;;;;;10.90;7.65;;;19.90;28.60;;;;;;5063856;28;20111;-54
2023/03/02 08:46:16;;;;;;;9.65;7.28;;;19.90;28.70;;;;;;5076756;28;20032;-55
2023/03/02 08:48:43;;;;;;;10.60;7.53;;;20.00;28.90;;;;;;5075680;28;20021;-52
2023/03/02 08:51:15;;;;;;;9.13;6.78;;;20.10;28.90;;;;;;5061798;28;20035;-56
2023/03/02 08:53:44;;;;;;;10.85;8.05;;;20.20;28.90;;;;;;5043435;28;20721;-53
2023/03/02 08:56:24;;;;;;;11.50;8.25;;;20.40;29.00;;;;;;5075058;28;20041;-54
2023/03/02 08:58:52;;;;;;;12.13;8.70;;;20.50;28.90;;;;;;5075173;28;20127;-55
2023/03/02 09:01:24;;;;;;;11.48;8.27;;;20.70;29.00;;;;;;5058395;28;20033;-52
2023/03/02 09:03:50;;;;;;;11.85;8.50;;;20.80;28.90;;;;;;5044640;28;20059;-50
2023/03/02 09:06:16;;;;;;;12.27;8.88;;;20.90;28.70;;;;;;5045978;28;20416;-53
2023/03/02 09:08:43;;;;;;;11.60;9.07;;;21.00;28.50;;;;;;5058068;28;20056;-48
2023/03/02 09:11:09;;;;;;;12.43;9.15;;;21.10;28.30;;;;;;5048008;28;20021;-51
2023/03/02 09:13:35;;;;;;;11.35;8.90;;;21.20;28.10;;;;;;5045190;28;20045;-51
2023/03/02 09:16:01;;;;;;;11.93;9.20;;;21.30;28.00;;;;;;5046327;28;20032;-51
2023/03/02 09:18:29;;;;;;;11.13;8.77;;;21.30;27.80;;;;;;5047794;28;20040;-51
2023/03/02 09:20:56;;;;;;;11.77;8.07;;;21.30;27.70;;;;;;5045042;28;20325;-53
2023/03/02 09:23:23;;;;;;;12.60;9.38;;;21.30;27.60;;;;;;5046418;28;20444;-53
2023/03/02 09:25:49;;;;;;;11.43;8.45;;;21.30;27.60;;;;;;5044631;28;20114;-53
2023/03/02 09:28:16;;;;;;;10.85;8.50;;;21.30;27.50;;;;;;5044949;28;20047;-52
2023/03/02 09:30:46;;;;;;;13.35;9.00;;;21.30;27.50;;;;;;5046399;28;20036;-50
2023/03/02 09:33:12;;;;;;;11.70;8.65;;;21.20;27.40;;;;;;5046270;28;20460;-49
2023/03/02 09:35:38;;;;;;;11.45;8.20;;;21.20;27.50;;;;;;5043986;28;20025;-48
2023/03/02 09:38:05;;;;;;;10.77;7.65;;;21.20;27.50;;;;;;5043610;28;20037;-51
2023/03/02 09:40:32;;;;;;;11.55;8.35;;;21.10;27.40;;;;;;5048769;28;20169;-49
2023/03/02 09:43:14;;;;;;;10.15;7.75;;;21.10;27.40;;;;;;5048485;28;20061;-49
2023/03/02 09:45:59;;;;;;;12.65;8.23;;;21.00;27.40;;;;;;5046895;28;20040;-50
2023/03/02 09:48:34;;;;;;;;;;;21.00;27.40;;;;;;5052039;28;20044;-51
2023/03/02 09:51:19;;;;;;;10.05;7.70;;;21.00;27.40;;;;;;5046497;28;19916;-50
2023/03/02 09:54:07;;;;;;;;;;;20.90;27.40;;;;;;5046234;28;20120;-51
2023/03/02 09:56:37;;;;;;;10.57;7.72;;;20.90;27.40;;;;;;5042551;28;19951;-51
2023/03/02 09:59:18;;;;;;;10.93;7.80;;;20.80;27.50;;;;;;5042759;28;20442;-52
2023/03/02 10:01:56;;;;;;;9.70;7.00;;;20.70;27.40;;;;;;5044818;28;20044;-54
2023/03/02 10:04:45;;;;;;;12.32;8.65;;;20.70;27.50;;;;;;5047551;28;20115;-52
2023/03/02 10:07:20;;;;;;;10.60;7.90;;;20.70;27.50;;;;;;5041482;28;20134;-52
2023/03/02 10:09:46;;;;;;;10.75;7.75;;;20.70;27.60;;;;;;5065432;28;20482;-54
2023/03/02 10:12:52;;;;;;;9.98;7.70;;;20.60;27.60;;;;;;5043852;28;20049;-49
2023/03/02 10:15:21;;;;;;;8.88;6.93;;;20.60;27.60;;;;;;5044722;28;20036;-52
2023/03/02 10:18:08;;;;;;;9.65;7.57;;;20.60;27.70;;;;;;5045851;28;20028;-47
2023/03/02 10:20:42;;;;;;;10.15;7.13;;;20.50;27.60;;;;;;5040926;28;20041;-51
2023/03/02 10:23:31;;;;;;;9.40;6.95;;;20.50;27.60;;;;;;5045032;28;20337;-51
2023/03/02 10:26:04;;;;;;;9.55;7.15;;;20.50;27.70;;;;;;5043167;28;20032;-47
2023/03/02 10:28:39;;;;;;;8.68;6.72;;;20.50;27.70;;;;;;5045099;28;20025;-48
2023/03/02 10:31:14;;;;;;;9.57;7.18;;;20.40;27.60;;;;;;5044185;28;20500;-53
2023/03/02 10:33:40;;;;;;;10.63;7.15;;;20.40;27.60;;;;;;5040583;28;20033;-48
2023/03/02 10:36:28;;;;;;;9.73;7.07;;;20.40;27.60;;;;;;5045340;28;20786;-50
2023/03/02 10:38:56;;;;;;;10.48;6.80;;;20.40;27.60;;;;;;5043271;28;20046;-52
2023/03/02 10:41:33;;;;;;;8.75;6.45;;;20.30;27.60;;;;;;5061735;28;20028;-53
2023/03/02 10:44:04;;;;;;;16.65;13.07;;;20.40;28.00;;;;;;5043213;28;20345;-51
2023/03/02 10:46:45;;;;;;;20.50;15.02;;;20.40;28.00;;;;;;5043551;28;20082;-52
2023/03/02 10:49:34;;;;;;;17.75;13.95;;;20.30;28.30;;;;;;5052584;28;20112;-49
2023/03/02 10:52:11;;;;;;;16.52;12.70;;;20.30;28.20;;;;;;5054354;28;20031;-49
2023/03/02 10:54:37;;;;;;;18.00;13.43;;;20.30;28.10;;;;;;5054442;28;20051;-50
2023/03/02 10:57:21;;;;;;;14.65;11.50;;;20.30;28.10;;;;;;5052654;28;20441;-52
2023/03/02 10:59:48;;;;;;;15.73;11.95;;;20.30;28.00;;;;;;5051972;28;20025;-48
2023/03/02 11:02:17;;;;;;;14.48;10.70;;;20.30;27.90;;;;;;5062012;28;20069;-53
2023/03/02 11:04:43;;;;;;;13.52;10.48;;;20.30;27.90;;;;;;5055752;28;20017;-53
2023/03/02 11:07:21;;;;;;;13.57;10.70;;;20.30;27.90;;;;;;5055978;28;20380;-54
2023/03/02 11:10:18;;;;;;;13.70;10.40;;;20.30;27.90;;;;;;5050583;28;20412;-56
2023/03/02 11:12:47;;;;;;;13.82;9.95;;;20.30;27.90;;;;;;5049519;28;20105;-48
2023/03/02 11:15:24;;;;;;;12.70;9.38;;;20.30;27.90;;;;;;5053243;28;20044;-53
2023/03/02 11:17:59;;;;;;;13.13;10.38;;;20.30;27.90;;;;;;5051773;28;20433;-51
2023/03/02 11:20:34;;;;;;;11.65;9.32;;;20.30;27.90;;;;;;5054444;28;20025;-52
2023/03/02 11:23:19;;;;;;;11.00;8.90;;;20.20;27.90;;;;;;5053729;28;20032;-48
2023/03/02 11:25:52;;;;;;;18.55;14.75;;;20.20;27.90;;;;;;5052221;28;20059;-50
2023/03/02 11:28:37;;;;;;;19.40;14.63;;;20.20;28.40;;;;;;5051064;28;20091;-48
2023/03/02 11:31:06;;;;;;;16.75;13.25;;;20.20;28.60;;;;;;5052650;28;20125;-48
2023/03/02 11:33:42;;;;;;;16.45;13.63;;;20.20;28.60;;;;;;5043683;28;20461;-49
2023/03/02 11:36:17;;;;;;;19.30;14.27;;;20.30;28.70;;;;;;5051097;28;20025;-52
2023/03/02 11:38:50;;;;;;;17.75;12.88;;;20.20;28.70;;;;;;5051661;28;20032;-54
2023/03/02 11:41:31;;;;;;;18.15;13.23;;;20.20;28.70;;;;;;5051926;28;20056;-51
2023/03/02 11:44:17;;;;;;;16.80;13.25;;;20.20;28.60;;;;;;5051806;28;20037;-54
2023/03/02 11:46:47;;;;;;;17.33;12.68;;;20.20;28.60;;;;;;5048739;28;20031;-48
2023/03/02 11:49:28;;;;;;;14.88;11.20;;;20.20;28.60;;;;;;5043240;28;20033;-52
2023/03/02 11:51:59;;;;;;;18.05;12.63;;;20.20;28.50;;;;;;5050040;28;20039;-50
2023/03/02 11:54:42;;;;;;;24.98;20.13;;;20.20;28.60;;;;;;5038553;28;20028;-50
2023/03/02 11:57:34;;;;;;;29.65;24.02;;;20.20;29.50;;;;;;5045953;28;20028;-49
2023/03/02 12:00:02;;;;;;;30.52;25.10;;;20.20;30.30;;;;;;5050292;28;20063;-54
2023/03/02 12:02:38;;;;;;;33.65;26.40;;;20.30;30.80;;;;;;5052237;28;20033;-54
2023/03/02 12:05:21;;;;;;;34.47;26.40;;;20.30;31.10;;;;;;5054258;28;20489;-52
2023/03/02 12:07:56;;;;;;;32.20;25.25;;;20.30;31.20;;;;;;5051380;28;20051;-53
2023/03/02 12:10:44;;;;;;;32.47;25.15;;;20.40;31.30;;;;;;5071841;28;20039;-53
2023/03/02 12:13:16;;;;;;;32.78;25.40;;;20.40;31.40;;;;;;5059471;28;20105;-53
2023/03/02 12:15:49;;;;;;;32.88;24.40;;;20.50;31.50;;;;;;5054313;28;20033;-53
2023/03/02 12:18:21;;;;;;;31.80;24.65;;;20.50;31.50;;;;;;5051166;28;20057;-51
2023/03/02 12:21:01;;;;;;;30.30;24.20;;;20.50;31.50;;;;;;5058070;28;20037;-53
2023/03/02 12:23:28;;;;;;;29.98;24.05;;;20.50;31.40;;;;;;5059900;28;20024;-53
2023/03/02 12:26:07;;;;;;;30.80;24.50;;;20.60;31.40;;;;;;5055888;28;20359;-51
2023/03/02 12:28:36;;;;;;;30.23;24.13;;;20.60;31.40;;;;;;5070771;28;20047;-53
2023/03/02 12:31:12;;;;;;;29.58;23.88;;;20.60;31.30;;;;;;5052394;28;20031;-52
2023/03/02 12:33:43;;;;;;;29.25;24.00;;;20.70;31.30;;;;;;5055353;28;20033;-50
2023/03/02 12:36:22;;;;;;;30.35;24.23;;;20.70;31.30;;;;;;5059865;28;20158;-54
2023/03/02 12:39:39;;;;;;;31.67;24.65;;;20.70;31.20;;;;;;5048781;28;20034;-50
2023/03/02 12:42:27;;;;;;;34.22;25.23;;;20.70;31.20;;;;;;5040157;28;20037;-48
2023/03/02 12:45:30;;;;;;;31.58;23.83;;;20.80;31.20;;;;;;5058966;28;20468;-54
2023/03/02 12:48:01;;;;;;;32.67;25.20;;;20.80;31.10;;;;;;5050438;28;20033;-53
2023/03/02 12:50:35;;;;;;;30.60;23.40;;;20.80;31.00;;;;;;5054694;28;20112;-52
2023/03/02 12:53:04;;;;;;;26.95;21.98;;;20.80;31.00;;;;;;5059177;28;20043;-49
2023/03/02 12:55:31;;;;;;;30.42;24.40;;;20.80;31.10;;;;;;5051839;28;20039;-52
2023/03/02 12:58:00;;;;;;;32.10;24.70;;;20.80;31.10;;;;;;5045139;28;20040;-49